Time;durP1;ratioP1;P1;durP2;ratioP2;P2;SDS_P1;SDS_P2;PMS_P1;PMS_P2;Temp;Humidity;BMP_temperature;BMP_pressure;BME280_temperature;BME280_humidity;BME280_pressure;Samples;Min_cycle;Max_cycle;Signal;HPM_P1;HPM_P2
2021/12/01 00:00:55;;;;;;;0.70;0.70;;;;;;;;;;5104637;28;20184;-68
2021/12/01 00:03:23;;;;;;;0.60;0.60;;;;;;;;;;5096003;28;20196;-68
2021/12/01 00:05:49;;;;;;;0.73;0.73;;;;;;;;;;5084491;28;20208;-68
2021/12/01 00:08:16;;;;;;;0.70;0.70;;;;;;;;;;5084697;28;20196;-68
2021/12/01 00:10:43;;;;;;;0.70;0.70;;;;;;;;;;5085070;28;20204;-68
2021/12/01 00:13:10;;;;;;;0.60;0.60;;;;;;;;;;5086469;28;20203;-68
2021/12/01 00:15:37;;;;;;;0.80;0.80;;;;;;;;;;5104695;28;20421;-68
2021/12/01 00:18:04;;;;;;;0.60;0.60;;;;;;;;;;5090487;28;20201;-68
2021/12/01 00:20:32;;;;;;;0.80;0.80;;;;;;;;;;5084697;28;20504;-68
2021/12/01 00:22:59;;;;;;;0.80;0.80;;;;;;;;;;5084909;28;20547;-69
2021/12/01 00:25:26;;;;;;;0.80;0.80;;;;;;;;;;5084382;28;20471;-68
2021/12/01 00:27:53;;;;;;;0.70;0.70;;;;;;;;;;5084550;28;20220;-69
2021/12/01 00:30:20;;;;;;;0.60;0.60;;;;;;;;;;5085755;28;20196;-69
2021/12/01 00:32:47;;;;;;;0.60;0.60;;;;;;;;;;5084333;28;20200;-67
2021/12/01 00:35:13;;;;;;;0.77;0.77;;;;;;;;;;5084010;28;20196;-69
2021/12/01 00:37:42;;;;;;;0.80;0.80;;;;;;;;;;5084367;28;20250;-68
2021/12/01 00:40:10;;;;;;;0.55;0.55;;;;;;;;;;5099440;28;20203;-69
2021/12/01 00:42:36;;;;;;;2.92;0.60;;;;;;;;;;5104139;28;20191;-69
2021/12/01 00:45:08;;;;;;;0.60;0.60;;;;;;;;;;5091333;28;20220;-68
2021/12/01 00:47:42;;;;;;;0.68;0.68;;;;;;;;;;5084297;28;20360;-67
2021/12/01 00:50:09;;;;;;;0.60;0.60;;;;;;;;;;5084158;28;20387;-67
2021/12/01 00:52:35;;;;;;;0.55;0.55;;;;;;;;;;5084165;28;20196;-67
2021/12/01 00:55:04;;;;;;;1.38;0.63;;;;;;;;;;5083999;28;20250;-67
2021/12/01 00:57:30;;;;;;;0.60;0.60;;;;;;;;;;5083713;28;20582;-67
2021/12/01 00:59:56;;;;;;;0.63;0.63;;;;;;;;;;5098064;28;20203;-68
2021/12/01 01:02:23;;;;;;;0.60;0.60;;;;;;;;;;5104250;28;20395;-67
2021/12/01 01:04:49;;;;;;;0.80;0.80;;;;;;;;;;5094933;28;20199;-67
2021/12/01 01:07:16;;;;;;;0.60;0.60;;;;;;;;;;5083619;28;20208;-67
2021/12/01 01:09:43;;;;;;;0.60;0.60;;;;;;;;;;5083078;28;20193;-66
2021/12/01 01:17:40;;;;;;;0.50;0.50;;;;;;;;;;5083442;28;20246;-66
2021/12/01 01:20:09;;;;;;;0.70;0.70;;;;;;;;;;5083429;28;20287;-66
2021/12/01 01:22:36;;;;;;;0.77;0.77;;;;;;;;;;5083178;28;20501;-66
2021/12/01 01:25:03;;;;;;;0.50;0.50;;;;;;;;;;5083435;28;20522;-66
2021/12/01 01:27:31;;;;;;;1.65;0.70;;;;;;;;;;5084707;28;20368;-66
2021/12/01 01:29:57;;;;;;;0.70;0.70;;;;;;;;;;5083416;28;20196;-66
2021/12/01 01:32:24;;;;;;;3.30;0.70;;;;;;;;;;5083319;28;20243;-68
2021/12/01 01:34:50;;;;;;;0.57;0.57;;;;;;;;;;5083163;28;20197;-66
2021/12/01 01:37:20;;;;;;;0.50;0.50;;;;;;;;;;5098819;28;20215;-66
2021/12/01 01:39:46;;;;;;;0.50;0.50;;;;;;;;;;5103171;28;20196;-66
2021/12/01 01:42:13;;;;;;;0.57;0.57;;;;;;;;;;5103275;28;20195;-66
2021/12/01 01:44:41;;;;;;;2.55;0.70;;;;;;;;;;5102945;28;20212;-66
2021/12/01 01:47:08;;;;;;;0.60;0.60;;;;;;;;;;5103211;28;20244;-67
2021/12/01 01:49:46;;;;;;;0.52;0.52;;;;;;;;;;5094796;28;20511;-67
2021/12/01 01:52:13;;;;;;;0.75;0.75;;;;;;;;;;5083171;28;20376;-66
2021/12/01 01:54:39;;;;;;;0.63;0.63;;;;;;;;;;5082680;28;20504;-67
2021/12/01 01:57:06;;;;;;;0.68;0.68;;;;;;;;;;5082757;28;20208;-67
2021/12/01 01:59:32;;;;;;;2.50;0.88;;;;;;;;;;5084844;28;20204;-68
2021/12/01 02:02:01;;;;;;;0.73;0.73;;;;;;;;;;5103184;28;20549;-68
2021/12/01 02:04:32;;;;;;;0.70;0.70;;;;;;;;;;5087284;28;20203;-68
2021/12/01 02:06:59;;;;;;;0.70;0.70;;;;;;;;;;5082503;28;20227;-67
2021/12/01 02:09:25;;;;;;;1.30;0.90;;;;;;;;;;5082611;28;20208;-67
2021/12/01 02:11:53;;;;;;;0.80;0.80;;;;;;;;;;5082429;28;20197;-66
2021/12/01 02:14:19;;;;;;;0.60;0.60;;;;;;;;;;5082795;28;20197;-67
2021/12/01 02:16:46;;;;;;;0.80;0.80;;;;;;;;;;5081994;28;20222;-67
2021/12/01 02:19:13;;;;;;;0.68;0.68;;;;;;;;;;5097403;28;20199;-67
2021/12/01 02:21:41;;;;;;;0.70;0.65;;;;;;;;;;5102230;28;20196;-67
2021/12/01 02:24:09;;;;;;;0.70;0.70;;;;;;;;;;5102633;28;20196;-67
2021/12/01 02:26:38;;;;;;;0.70;0.70;;;;;;;;;;5086806;28;20188;-66
2021/12/01 02:29:05;;;;;;;0.60;0.60;;;;;;;;;;5081803;28;20507;-67
2021/12/01 02:31:35;;;;;;;0.75;0.60;;;;;;;;;;5082549;28;20385;-67
2021/12/01 02:34:03;;;;;;;0.50;0.50;;;;;;;;;;5101602;28;20184;-66
2021/12/01 02:36:29;;;;;;;0.85;0.85;;;;;;;;;;5102252;28;20223;-66
2021/12/01 02:38:57;;;;;;;0.70;0.70;;;;;;;;;;5102294;28;20196;-66
2021/12/01 02:41:28;;;;;;;0.68;0.68;;;;;;;;;;5100967;28;20199;-66
2021/12/01 02:43:54;;;;;;;0.50;0.50;;;;;;;;;;5102586;28;20278;-66
2021/12/01 02:46:21;;;;;;;0.77;0.77;;;;;;;;;;5098048;28;20364;-66
2021/12/01 02:48:47;;;;;;;0.60;0.60;;;;;;;;;;5082362;28;20384;-66
2021/12/01 02:51:14;;;;;;;0.63;0.63;;;;;;;;;;5090354;28;20196;-66
2021/12/01 02:53:41;;;;;;;0.60;0.60;;;;;;;;;;5102515;28;20561;-66
2021/12/01 02:56:09;;;;;;;0.70;0.70;;;;;;;;;;5101294;28;20199;-67
2021/12/01 02:58:40;;;;;;;1.70;0.90;;;;;;;;;;5102430;28;20427;-65
2021/12/01 03:01:07;;;;;;;0.70;0.70;;;;;;;;;;5091753;28;20196;-65
2021/12/01 03:03:34;;;;;;;0.60;0.50;;;;;;;;;;5082096;28;20203;-65
2021/12/01 03:06:01;;;;;;;0.60;0.60;;;;;;;;;;5081737;28;20204;-65
2021/12/01 03:08:28;;;;;;;0.43;0.43;;;;;;;;;;5081980;28;20203;-67
2021/12/01 03:10:55;;;;;;;0.60;0.60;;;;;;;;;;5081979;28;20268;-67
2021/12/01 03:13:25;;;;;;;0.60;0.60;;;;;;;;;;5082080;28;20216;-66
2021/12/01 03:15:52;;;;;;;0.70;0.70;;;;;;;;;;5097923;28;20184;-67
2021/12/01 03:18:19;;;;;;;1.02;1.02;;;;;;;;;;5102062;28;20596;-67
2021/12/01 03:20:47;;;;;;;1.60;1.00;;;;;;;;;;5102408;28;20204;-67
2021/12/01 03:23:14;;;;;;;0.90;0.90;;;;;;;;;;5102107;28;20268;-65
2021/12/01 03:25:40;;;;;;;0.80;0.80;;;;;;;;;;5101481;28;20492;-65
2021/12/01 03:28:07;;;;;;;0.68;0.68;;;;;;;;;;5101002;28;20192;-66
2021/12/01 03:30:37;;;;;;;0.60;0.60;;;;;;;;;;5081976;28;20196;-66
2021/12/01 03:33:04;;;;;;;0.70;0.70;;;;;;;;;;5083428;28;20236;-66
2021/12/01 03:35:31;;;;;;;0.50;0.50;;;;;;;;;;5085470;28;20519;-66
2021/12/01 03:37:58;;;;;;;0.60;0.60;;;;;;;;;;5085633;28;20220;-68
2021/12/01 03:40:24;;;;;;;1.65;0.60;;;;;;;;;;5094778;28;20196;-66
2021/12/01 03:42:51;;;;;;;0.45;0.45;;;;;;;;;;5098944;28;20196;-68
2021/12/01 03:45:17;;;;;;;0.40;0.40;;;;;;;;;;5085437;28;20217;-68
2021/12/01 03:47:46;;;;;;;1.98;0.65;;;;;;;;;;5085140;28;20193;-66
2021/12/01 03:50:12;;;;;;;0.40;0.40;;;;;;;;;;5089180;28;20511;-66
2021/12/01 03:52:39;;;;;;;0.50;0.50;;;;;;;;;;5085369;28;20208;-67
2021/12/01 03:55:07;;;;;;;0.50;0.50;;;;;;;;;;5084731;28;20399;-67
2021/12/01 03:57:33;;;;;;;0.55;0.55;;;;;;;;;;5084895;28;20549;-67
2021/12/01 04:00:03;;;;;;;0.60;0.60;;;;;;;;;;5084941;28;20196;-67
2021/12/01 04:02:30;;;;;;;0.60;0.60;;;;;;;;;;5084800;28;20218;-68
2021/12/01 04:04:58;;;;;;;1.23;0.55;;;;;;;;;;5098065;28;20191;-68
2021/12/01 04:07:24;;;;;;;0.50;0.50;;;;;;;;;;5104958;28;20508;-67
2021/12/01 04:09:51;;;;;;;1.30;0.50;;;;;;;;;;5105417;28;20203;-67
2021/12/01 04:12:18;;;;;;;0.95;0.60;;;;;;;;;;5100083;28;20196;-68
2021/12/01 04:14:44;;;;;;;1.58;0.70;;;;;;;;;;5084291;28;20204;-68
2021/12/01 04:17:12;;;;;;;0.70;0.70;;;;;;;;;;5084865;28;20213;-68
2021/12/01 04:19:38;;;;;;;0.95;0.70;;;;;;;;;;5103414;28;20206;-67
2021/12/01 04:22:06;;;;;;;0.60;0.60;;;;;;;;;;5105040;28;20387;-67
2021/12/01 04:24:33;;;;;;;0.77;0.60;;;;;;;;;;5104766;28;20196;-67
2021/12/01 04:26:59;;;;;;;0.80;0.80;;;;;;;;;;5104996;28;20502;-67
2021/12/01 04:29:26;;;;;;;0.60;0.60;;;;;;;;;;5090415;28;20196;-67
2021/12/01 04:31:53;;;;;;;0.68;0.68;;;;;;;;;;5088077;28;20192;-67
2021/12/01 04:34:20;;;;;;;0.93;0.93;;;;;;;;;;5104968;28;20389;-67
2021/12/01 04:36:48;;;;;;;0.90;0.90;;;;;;;;;;5104204;28;20216;-67
2021/12/01 04:39:16;;;;;;;0.90;0.90;;;;;;;;;;5104773;28;20196;-67
2021/12/01 04:41:50;;;;;;;1.00;1.00;;;;;;;;;;5104476;28;20202;-67
2021/12/01 04:44:17;;;;;;;0.80;0.80;;;;;;;;;;5103771;28;20241;-67
2021/12/01 04:46:46;;;;;;;0.73;0.73;;;;;;;;;;5094055;28;20665;-67
2021/12/01 04:49:13;;;;;;;1.13;0.70;;;;;;;;;;5084116;28;20197;-67
2021/12/01 04:51:41;;;;;;;0.68;0.68;;;;;;;;;;5084135;28;20267;-67
2021/12/01 04:54:07;;;;;;;2.80;2.60;;;;;;;;;;5102330;28;20382;-67
2021/12/01 04:56:36;;;;;;;2.20;1.13;;;;;;;;;;5095455;28;20192;-66
2021/12/01 04:59:02;;;;;;;0.77;0.77;;;;;;;;;;5084060;28;20493;-66
2021/12/01 05:01:29;;;;;;;0.40;0.40;;;;;;;;;;5084032;28;20242;-66
2021/12/01 05:03:55;;;;;;;0.50;0.50;;;;;;;;;;5083963;28;20446;-66
2021/12/01 05:06:22;;;;;;;1.65;0.60;;;;;;;;;;5089850;28;20204;-67
2021/12/01 05:08:49;;;;;;;0.40;0.40;;;;;;;;;;5104203;28;20440;-67
2021/12/01 05:11:15;;;;;;;0.50;0.50;;;;;;;;;;5104254;28;20203;-67
2021/12/01 05:13:43;;;;;;;0.43;0.43;;;;;;;;;;5104226;28;20405;-67
2021/12/01 05:16:09;;;;;;;0.60;0.60;;;;;;;;;;5099027;28;20492;-67
2021/12/01 05:18:36;;;;;;;7.65;2.88;;;;;;;;;;5083932;28;20216;-67
2021/12/01 05:21:02;;;;;;;1.30;1.20;;;;;;;;;;5083562;28;20203;-67
2021/12/01 05:23:29;;;;;;;41.38;11.30;;;;;;;;;;5083273;28;20196;-67
2021/12/01 05:25:55;;;;;;;29.50;8.27;;;;;;;;;;5085460;28;20206;-67
2021/12/01 05:28:22;;;;;;;2.13;1.63;;;;;;;;;;5103487;28;20192;-67
2021/12/01 05:30:50;;;;;;;15.88;3.83;;;;;;;;;;5103735;28;20195;-67
2021/12/01 05:33:16;;;;;;;4.82;1.05;;;;;;;;;;5103497;28;20500;-67
2021/12/01 05:35:43;;;;;;;7.47;2.67;;;;;;;;;;5102498;28;20356;-67
2021/12/01 05:38:10;;;;;;;9.50;3.08;;;;;;;;;;5083165;28;20235;-68
2021/12/01 05:40:37;;;;;;;17.17;4.90;;;;;;;;;;5083424;28;20386;-68
2021/12/01 05:43:04;;;;;;;9.10;2.75;;;;;;;;;;5099409;28;20192;-68
2021/12/01 05:45:30;;;;;;;3.90;1.58;;;;;;;;;;5103324;28;20554;-68
2021/12/01 05:47:58;;;;;;;2.45;2.10;;;;;;;;;;5086226;28;20567;-68
2021/12/01 05:50:25;;;;;;;0.63;0.63;;;;;;;;;;5103353;28;20515;-67
2021/12/01 05:52:51;;;;;;;2.40;1.25;;;;;;;;;;5103393;28;20195;-68
2021/12/01 05:55:18;;;;;;;1.67;1.30;;;;;;;;;;5103071;28;20195;-66
2021/12/01 05:57:44;;;;;;;1.55;0.80;;;;;;;;;;5085726;28;20223;-66
2021/12/01 06:00:12;;;;;;;1.00;1.00;;;;;;;;;;5083355;28;20200;-68
2021/12/01 06:02:41;;;;;;;1.23;1.13;;;;;;;;;;5082622;28;20196;-68
2021/12/01 06:05:10;;;;;;;1.63;0.70;;;;;;;;;;5082409;28;20205;-68
2021/12/01 06:07:36;;;;;;;0.60;0.60;;;;;;;;;;5098128;28;20192;-68
2021/12/01 06:10:03;;;;;;;0.70;0.70;;;;;;;;;;5103244;28;20543;-67
2021/12/01 06:12:29;;;;;;;2.47;1.88;;;;;;;;;;5103096;28;20195;-69
2021/12/01 06:14:56;;;;;;;5.20;2.10;;;;;;;;;;5102622;28;20196;-67
2021/12/01 06:17:23;;;;;;;1.70;1.13;;;;;;;;;;5089389;28;20227;-67
2021/12/01 06:19:49;;;;;;;0.65;0.65;;;;;;;;;;5082258;28;20531;-67
2021/12/01 06:22:17;;;;;;;0.70;0.70;;;;;;;;;;5082694;28;20416;-66
2021/12/01 06:24:44;;;;;;;0.40;0.40;;;;;;;;;;5082729;28;20196;-67
2021/12/01 06:27:11;;;;;;;1.52;0.45;;;;;;;;;;5082769;28;20197;-66
2021/12/01 06:29:37;;;;;;;0.90;0.57;;;;;;;;;;5082407;28;20196;-66
2021/12/01 06:32:04;;;;;;;3.25;0.70;;;;;;;;;;5089233;28;20195;-68
2021/12/01 06:34:30;;;;;;;2.63;2.13;;;;;;;;;;5102331;28;20195;-68
2021/12/01 06:36:57;;;;;;;12.77;7.22;;;;;;;;;;5092473;28;20197;-68
2021/12/01 06:39:25;;;;;;;2.40;2.22;;;;;;;;;;5082398;28;20215;-68
2021/12/01 06:41:54;;;;;;;1.27;0.55;;;;;;;;;;5082417;28;20203;-68
2021/12/01 06:44:20;;;;;;;4.93;4.07;;;;;;;;;;5082130;28;20263;-68
2021/12/01 06:46:47;;;;;;;1.80;1.70;;;;;;;;;;5093388;28;20199;-68
2021/12/01 06:49:13;;;;;;;1.63;1.52;;;;;;;;;;5102099;28;20192;-68
2021/12/01 06:51:40;;;;;;;0.70;0.70;;;;;;;;;;5102377;28;20195;-68
2021/12/01 06:54:06;;;;;;;1.60;1.60;;;;;;;;;;5102436;28;20226;-68
2021/12/01 06:56:34;;;;;;;0.57;0.57;;;;;;;;;;5092273;28;20424;-68
2021/12/01 06:59:00;;;;;;;0.40;0.40;;;;;;;;;;5081910;28;20219;-68
2021/12/01 07:01:27;;;;;;;0.47;0.40;;;;;;;;;;5082558;28;20200;-68
2021/12/01 07:03:53;;;;;;;0.40;0.40;;;;;;;;;;5081891;28;20203;-68
2021/12/01 07:06:20;;;;;;;0.47;0.30;;;;;;;;;;5089393;28;20203;-68
2021/12/01 07:08:46;;;;;;;0.52;0.40;;;;;;;;;;5105240;28;20511;-68
2021/12/01 07:11:12;;;;;;;0.40;0.40;;;;;;;;;;5106124;28;20195;-56
2021/12/01 07:13:40;;;;;;;1.00;0.50;;;;;;;;;;5104996;28;20203;-55
2021/12/01 07:16:07;;;;;;;0.50;0.50;;;;;;;;;;5079649;28;20530;-55
2021/12/01 07:18:33;;;;;;;0.40;0.40;;;;;;;;;;5089106;28;20231;-55
2021/12/01 07:21:00;;;;;;;4.22;0.43;;;;;;;;;;5096153;28;20210;-55
2021/12/01 07:23:27;;;;;;;0.43;0.43;;;;;;;;;;5094491;28;20465;-55
2021/12/01 07:25:53;;;;;;;0.30;0.30;;;;;;;;;;5091655;28;20602;-54
2021/12/01 07:28:20;;;;;;;0.40;0.40;;;;;;;;;;5099024;28;20466;-53
2021/12/01 07:30:47;;;;;;;0.30;0.30;;;;;;;;;;5096983;28;20199;-54
2021/12/01 07:33:14;;;;;;;1.13;0.40;;;;;;;;;;5090853;28;20572;-56
2021/12/01 07:35:40;;;;;;;0.75;0.40;;;;;;;;;;5092639;28;20449;-54
2021/12/01 07:38:07;;;;;;;0.52;0.50;;;;;;;;;;5096863;28;20212;-56
2021/12/01 07:40:33;;;;;;;0.50;0.50;;;;;;;;;;5093355;28;20575;-54
2021/12/01 07:43:00;;;;;;;2.63;0.60;;;;;;;;;;5099014;28;20330;-54
2021/12/01 07:45:27;;;;;;;1.42;0.50;;;;;;;;;;5098439;28;20226;-54
2021/12/01 07:47:55;;;;;;;1.15;0.50;;;;;;;;;;5097910;28;21010;-57
2021/12/01 07:50:21;;;;;;;1.30;0.38;;;;;;;;;;5094158;28;20558;-56
2021/12/01 07:52:48;;;;;;;1.35;1.05;;;;;;;;;;5080017;28;20559;-57
2021/12/01 07:55:14;;;;;;;0.70;0.70;;;;;;;;;;5078489;28;20208;-54
2021/12/01 07:57:42;;;;;;;2.95;1.40;;;;;;;;;;5077873;28;20215;-55
2021/12/01 08:00:09;;;;;;;1.98;0.55;;;;;;;;;;5078487;28;20208;-57
2021/12/01 08:02:36;;;;;;;3.10;0.68;;;;;;;;;;5094128;28;20552;-56
2021/12/01 08:05:04;;;;;;;4.65;2.00;;;;;;;;;;5098241;28;20750;-56
2021/12/01 08:07:34;;;;;;;1.98;1.73;;;;;;;;;;5098453;28;20519;-57
2021/12/01 08:10:01;;;;;;;4.10;2.50;;;;;;;;;;5098874;28;20215;-57
2021/12/01 08:12:27;;;;;;;2.00;1.35;;;;;;;;;;5084425;28;20208;-58
2021/12/01 08:14:54;;;;;;;2.35;1.42;;;;;;;;;;5078820;28;20215;-56
2021/12/01 08:17:20;;;;;;;0.77;0.77;;;;;;;;;;5078112;28;20216;-57
2021/12/01 08:19:46;;;;;;;0.75;0.52;;;;;;;;;;5080498;28;20575;-56
2021/12/01 08:22:14;;;;;;;0.60;0.60;;;;;;;;;;5098245;28;20231;-56
2021/12/01 08:24:41;;;;;;;7.32;1.13;;;;;;;;;;5097142;28;20208;-57
2021/12/01 08:27:07;;;;;;;3.10;1.35;;;;;;;;;;5097752;28;20226;-57
2021/12/01 08:29:34;;;;;;;1.10;0.80;;;;;;;;;;5098581;28;20332;-56
2021/12/01 08:32:00;;;;;;;2.25;1.00;;;;;;;;;;5098614;28;20596;-56
2021/12/01 08:34:27;;;;;;;1.13;0.80;;;;;;;;;;5089232;28;20519;-56
2021/12/01 08:36:54;;;;;;;0.85;0.85;;;;;;;;;;5077231;28;20211;-54
2021/12/01 08:39:21;;;;;;;0.63;0.60;;;;;;;;;;5077816;28;20295;-54
2021/12/01 08:41:51;;;;;;;0.60;0.60;;;;;;;;;;5077920;28;20205;-55
2021/12/01 08:44:20;;;;;;;0.60;0.60;;;;;;;;;;5084059;28;20202;-56
2021/12/01 08:46:47;;;;;;;1.17;0.77;;;;;;;;;;5096793;28;20265;-57
2021/12/01 08:49:13;;;;;;;1.40;1.13;;;;;;;;;;5097834;28;20284;-56
2021/12/01 08:51:40;;;;;;;0.80;0.80;;;;;;;;;;5096754;28;20361;-55
2021/12/01 08:54:07;;;;;;;0.88;0.80;;;;;;;;;;5081793;28;20218;-53
2021/12/01 08:56:34;;;;;;;0.93;0.60;;;;;;;;;;5096224;28;20269;-56
2021/12/01 08:59:02;;;;;;;0.65;0.60;;;;;;;;;;5097454;28;20226;-57
2021/12/01 09:01:28;;;;;;;3.03;0.55;;;;;;;;;;5097075;28;20216;-56
2021/12/01 09:03:54;;;;;;;0.65;0.60;;;;;;;;;;5085150;28;20204;-56
2021/12/01 09:06:21;;;;;;;0.43;0.40;;;;;;;;;;5093985;28;20269;-56
2021/12/01 09:08:47;;;;;;;0.77;0.45;;;;;;;;;;5097004;28;20204;-56
2021/12/01 09:11:17;;;;;;;0.30;0.30;;;;;;;;;;5095128;28;20199;-55
2021/12/01 09:13:45;;;;;;;6.57;1.63;;;;;;;;;;5095347;28;20208;-57
2021/12/01 09:16:11;;;;;;;0.95;0.95;;;;;;;;;;5091645;28;20208;-57
2021/12/01 09:18:38;;;;;;;0.90;0.90;;;;;;;;;;5096638;28;20348;-56
2021/12/01 09:21:04;;;;;;;0.73;0.47;;;;;;;;;;5096681;28;20219;-58
2021/12/01 09:23:31;;;;;;;0.30;0.30;;;;;;;;;;5097123;28;20527;-56
2021/12/01 09:25:58;;;;;;;0.30;0.30;;;;;;;;;;5093615;28;20226;-54
2021/12/01 09:28:26;;;;;;;0.68;0.60;;;;;;;;;;5086487;28;20204;-57
2021/12/01 09:30:55;;;;;;;0.30;0.30;;;;;;;;;;5076266;28;20528;-58
2021/12/01 09:33:21;;;;;;;0.30;0.30;;;;;;;;;;5076176;28;20208;-54
2021/12/01 09:35:48;;;;;;;0.55;0.40;;;;;;;;;;5077561;28;20215;-55
2021/12/01 09:38:16;;;;;;;2.92;0.47;;;;;;;;;;5094498;28;20207;-54
2021/12/01 09:40:45;;;;;;;0.77;0.35;;;;;;;;;;5097031;28;20243;-56
2021/12/01 09:43:14;;;;;;;0.43;0.30;;;;;;;;;;5090433;28;20204;-56
2021/12/01 09:45:41;;;;;;;0.20;0.20;;;;;;;;;;5093961;28;20224;-55
2021/12/01 09:48:09;;;;;;;0.20;0.20;;;;;;;;;;5096902;28;20207;-54
2021/12/01 09:50:35;;;;;;;0.30;0.30;;;;;;;;;;5096950;28;20596;-53
2021/12/01 09:53:02;;;;;;;4.03;0.55;;;;;;;;;;5097012;28;20531;-55
2021/12/01 09:55:28;;;;;;;3.50;0.43;;;;;;;;;;5094191;28;20209;-55
2021/12/01 09:57:59;;;;;;;1.15;0.95;;;;;;;;;;5096226;28;20554;-55
2021/12/01 10:00:25;;;;;;;5.18;0.65;;;;;;;;;;5096319;28;20254;-54
2021/12/01 10:02:52;;;;;;;0.30;0.30;;;;;;;;;;5094753;28;20434;-56
2021/12/01 10:05:33;;;;;;;1.55;0.47;;;;;;;;;;5095845;28;20215;-54
2021/12/01 10:08:01;;;;;;;2.13;0.73;;;;;;;;;;5088280;28;20212;-58
2021/12/01 10:10:28;;;;;;;1.58;0.40;;;;;;;;;;5075951;28;20516;-55
2021/12/01 10:12:54;;;;;;;6.90;1.10;;;;;;;;;;5095093;28;20526;-55
2021/12/01 10:15:29;;;;;;;1.35;1.25;;;;;;;;;;5095559;28;20367;-54
2021/12/01 10:18:07;;;;;;;3.03;0.60;;;;;;;;;;5096313;28;20222;-56
2021/12/01 10:20:34;;;;;;;5.28;0.47;;;;;;;;;;5095952;28;20230;-55
2021/12/01 10:23:09;;;;;;;5.57;0.60;;;;;;;;;;5076391;28;20508;-55
2021/12/01 10:25:35;;;;;;;6.47;0.65;;;;;;;;;;5087965;28;20207;-56
2021/12/01 10:28:02;;;;;;;9.70;1.00;;;;;;;;;;5095876;28;20215;-56
2021/12/01 10:30:38;;;;;;;4.10;0.50;;;;;;;;;;5095801;28;20210;-57
2021/12/01 10:33:08;;;;;;;0.30;0.30;;;;;;;;;;5096132;28;20222;-56
2021/12/01 10:35:35;;;;;;;0.95;0.50;;;;;;;;;;5094453;28;20307;-56
2021/12/01 10:38:02;;;;;;;0.25;0.25;;;;;;;;;;5081950;28;20236;-56
2021/12/01 10:40:29;;;;;;;10.85;1.30;;;;;;;;;;5075326;28;20231;-56
2021/12/01 10:42:57;;;;;;;1.55;0.50;;;;;;;;;;5075180;28;20211;-56
2021/12/01 10:45:25;;;;;;;0.43;0.40;;;;;;;;;;5083999;28;20224;-55
2021/12/01 10:47:52;;;;;;;0.90;0.40;;;;;;;;;;5094696;28;20207;-56
2021/12/01 10:50:19;;;;;;;0.80;0.60;;;;;;;;;;5096232;28;20210;-55
2021/12/01 10:52:49;;;;;;;0.30;0.30;;;;;;;;;;5080795;28;20208;-55
2021/12/01 10:55:16;;;;;;;0.40;0.40;;;;;;;;;;5075203;28;20231;-57
2021/12/01 10:57:47;;;;;;;1.98;0.40;;;;;;;;;;5075639;28;20208;-56
2021/12/01 11:00:14;;;;;;;4.68;0.40;;;;;;;;;;5087468;28;20520;-60
2021/12/01 11:02:41;;;;;;;0.57;0.40;;;;;;;;;;5096092;28;20208;-56
2021/12/01 11:05:08;;;;;;;1.13;0.30;;;;;;;;;;5094996;28;20238;-56
2021/12/01 11:07:35;;;;;;;0.30;0.22;;;;;;;;;;5094376;28;20215;-55
2021/12/01 11:10:11;;;;;;;0.57;0.40;;;;;;;;;;5082573;28;20439;-55
2021/12/01 11:12:38;;;;;;;0.30;0.30;;;;;;;;;;5075476;28;20504;-56
2021/12/01 11:15:17;;;;;;;0.32;0.32;;;;;;;;;;5074964;28;20805;-56
2021/12/01 11:17:43;;;;;;;0.30;0.30;;;;;;;;;;5075530;28;20448;-56
2021/12/01 11:20:10;;;;;;;1.55;0.57;;;;;;;;;;5089211;28;20227;-55
2021/12/01 11:22:37;;;;;;;0.40;0.40;;;;;;;;;;5095810;28;20207;-54
2021/12/01 11:25:21;;;;;;;1.40;0.22;;;;;;;;;;5079837;28;20250;-60
2021/12/01 11:27:48;;;;;;;1.38;1.27;;;;;;;;;;5089409;28;20274;-60
2021/12/01 11:30:14;;;;;;;0.30;0.30;;;;;;;;;;5094725;28;20203;-60
2021/12/01 11:32:42;;;;;;;3.75;3.40;;;;;;;;;;5095847;28;20306;-57
2021/12/01 11:35:09;;;;;;;3.25;0.80;;;;;;;;;;5094835;28;20215;-56
2021/12/01 11:37:35;;;;;;;4.38;0.60;;;;;;;;;;5094320;28;20215;-55
2021/12/01 11:40:02;;;;;;;1.35;0.60;;;;;;;;;;5082495;28;20225;-55
2021/12/01 11:42:28;;;;;;;0.73;0.50;;;;;;;;;;5075028;28;20208;-56
2021/12/01 11:44:55;;;;;;;0.30;0.30;;;;;;;;;;5074471;28;20220;-56
2021/12/01 11:47:22;;;;;;;1.35;0.40;;;;;;;;;;5084583;28;20503;-55
2021/12/01 11:49:50;;;;;;;1.10;1.10;;;;;;;;;;5088779;28;20512;-57
2021/12/01 11:52:17;;;;;;;0.60;0.60;;;;;;;;;;5075049;28;20274;-57
2021/12/01 11:54:44;;;;;;;1.42;0.30;;;;;;;;;;5078882;28;20204;-60
2021/12/01 11:57:11;;;;;;;3.42;1.00;;;;;;;;;;5079556;28;20221;-60
2021/12/01 11:59:38;;;;;;;0.75;0.30;;;;;;;;;;5093326;28;20223;-60
2021/12/01 12:02:05;;;;;;;0.50;0.50;;;;;;;;;;5098588;28;20253;-56
2021/12/01 12:04:42;;;;;;;1.13;0.50;;;;;;;;;;5098665;28;20207;-60
2021/12/01 12:07:11;;;;;;;0.30;0.30;;;;;;;;;;5098971;28;20207;-59
2021/12/01 12:09:38;;;;;;;0.57;0.57;;;;;;;;;;5098141;28;20204;-60
2021/12/01 12:12:13;;;;;;;0.60;0.60;;;;;;;;;;5099400;28;20567;-60
2021/12/01 12:14:48;;;;;;;0.32;0.32;;;;;;;;;;5094592;28;20376;-59
2021/12/01 12:17:16;;;;;;;1.35;0.45;;;;;;;;;;5085729;28;20204;-58
2021/12/01 12:19:53;;;;;;;0.65;0.40;;;;;;;;;;5092332;28;20227;-59
2021/12/01 12:22:33;;;;;;;0.90;0.40;;;;;;;;;;5098766;28;20203;-57
2021/12/01 12:25:00;;;;;;;0.47;0.47;;;;;;;;;;5096176;28;20229;-58
2021/12/01 12:27:31;;;;;;;1.27;0.50;;;;;;;;;;5095142;28;20208;-58
2021/12/01 12:29:59;;;;;;;0.60;0.60;;;;;;;;;;5095289;28;20204;-58
2021/12/01 12:32:29;;;;;;;0.88;0.88;;;;;;;;;;5096710;28;20207;-58
2021/12/01 12:34:56;;;;;;;1.30;1.23;;;;;;;;;;5093161;28;20207;-58
2021/12/01 12:37:25;;;;;;;0.70;0.70;;;;;;;;;;5098081;28;20216;-58
2021/12/01 12:39:52;;;;;;;0.75;0.75;;;;;;;;;;5098295;28;20227;-59
2021/12/01 12:42:19;;;;;;;0.98;0.93;;;;;;;;;;5097619;28;20208;-58
2021/12/01 12:44:46;;;;;;;0.40;0.40;;;;;;;;;;5089332;28;20224;-59
2021/12/01 12:47:14;;;;;;;0.93;0.90;;;;;;;;;;5095555;28;20249;-59
2021/12/01 12:49:42;;;;;;;2.28;0.45;;;;;;;;;;5081304;28;20204;-59
2021/12/01 12:52:26;;;;;;;0.90;0.90;;;;;;;;;;5082238;28;20511;-59
2021/12/01 12:54:55;;;;;;;0.65;0.30;;;;;;;;;;5097010;28;20207;-59
2021/12/01 12:57:22;;;;;;;0.30;0.30;;;;;;;;;;5087928;28;20216;-60
2021/12/01 12:59:48;;;;;;;0.30;0.30;;;;;;;;;;5078943;28;20237;-59
2021/12/01 13:02:32;;;;;;;1.60;0.20;;;;;;;;;;5083703;28;20204;-60
2021/12/01 13:05:00;;;;;;;3.20;0.40;;;;;;;;;;5076475;28;20275;-59
2021/12/01 13:07:40;;;;;;;1.38;0.40;;;;;;;;;;5078330;28;20246;-56
2021/12/01 13:10:10;;;;;;;0.30;0.30;;;;;;;;;;5077477;28;20204;-56
2021/12/01 13:12:44;;;;;;;1.55;0.30;;;;;;;;;;5076928;28;20208;-55
2021/12/01 13:15:18;;;;;;;0.68;0.30;;;;;;;;;;5095432;28;20214;-56
2021/12/01 13:17:46;;;;;;;0.30;0.30;;;;;;;;;;5084754;28;20208;-55
2021/12/01 13:20:12;;;;;;;0.50;0.50;;;;;;;;;;5077278;28;20220;-56
2021/12/01 13:22:39;;;;;;;0.30;0.30;;;;;;;;;;5076707;28;20200;-55
2021/12/01 13:25:07;;;;;;;0.50;0.50;;;;;;;;;;5076580;28;20215;-55
2021/12/01 13:27:44;;;;;;;0.50;0.50;;;;;;;;;;5088170;28;20215;-59
2021/12/01 13:30:11;;;;;;;0.50;0.50;;;;;;;;;;5097801;28;20227;-60
2021/12/01 13:32:37;;;;;;;0.55;0.40;;;;;;;;;;5096169;28;20213;-59
2021/12/01 13:35:04;;;;;;;0.50;0.50;;;;;;;;;;5094768;28;20512;-55
2021/12/01 13:37:31;;;;;;;1.05;0.60;;;;;;;;;;5077447;28;20208;-57
2021/12/01 13:39:57;;;;;;;1.90;0.60;;;;;;;;;;5077611;28;20228;-56
2021/12/01 13:42:24;;;;;;;0.40;0.40;;;;;;;;;;5077628;28;20501;-60
2021/12/01 13:44:53;;;;;;;0.60;0.60;;;;;;;;;;5076736;28;20224;-60
2021/12/01 13:47:21;;;;;;;0.70;0.70;;;;;;;;;;5077144;28;20209;-60
2021/12/01 13:49:50;;;;;;;0.90;0.80;;;;;;;;;;5077522;28;20200;-60
2021/12/01 13:52:25;;;;;;;0.98;0.98;;;;;;;;;;5078385;28;20475;-60
2021/12/01 13:54:52;;;;;;;0.32;0.32;;;;;;;;;;5078379;28;20401;-55
2021/12/01 13:57:18;;;;;;;3.05;0.60;;;;;;;;;;5076138;28;20228;-55
2021/12/01 13:59:46;;;;;;;4.43;0.85;;;;;;;;;;5076442;28;20228;-53
2021/12/01 14:02:21;;;;;;;1.05;0.60;;;;;;;;;;5092099;28;20227;-60
2021/12/01 14:04:49;;;;;;;0.50;0.50;;;;;;;;;;5095871;28;20207;-54
2021/12/01 14:07:15;;;;;;;0.57;0.57;;;;;;;;;;5095750;28;20219;-56
2021/12/01 14:09:43;;;;;;;0.20;0.20;;;;;;;;;;5096556;28;20204;-56
2021/12/01 14:12:12;;;;;;;0.50;0.50;;;;;;;;;;5083678;28;20208;-61
2021/12/01 14:14:38;;;;;;;0.35;0.35;;;;;;;;;;5076323;28;20204;-60
2021/12/01 14:17:05;;;;;;;9.15;1.10;;;;;;;;;;5075314;28;20209;-60
2021/12/01 14:19:34;;;;;;;2.55;0.35;;;;;;;;;;5089010;28;20213;-60
2021/12/01 14:22:01;;;;;;;0.47;0.47;;;;;;;;;;5078175;28;20204;-60
2021/12/01 14:24:30;;;;;;;0.30;0.30;;;;;;;;;;5091923;28;20202;-59
2021/12/01 14:26:59;;;;;;;1.50;0.45;;;;;;;;;;5087707;28;20204;-60
2021/12/01 14:29:25;;;;;;;0.30;0.30;;;;;;;;;;5083342;28;20207;-60
2021/12/01 14:31:59;;;;;;;0.70;0.30;;;;;;;;;;5096883;28;20511;-61
2021/12/01 14:34:29;;;;;;;0.30;0.30;;;;;;;;;;5096763;28;20546;-60
2021/12/01 14:36:57;;;;;;;1.95;0.30;;;;;;;;;;5096732;28;20207;-60
2021/12/01 14:39:23;;;;;;;0.35;0.35;;;;;;;;;;5097366;28;20219;-60
2021/12/01 14:41:51;;;;;;;1.45;0.60;;;;;;;;;;5096853;28;20234;-61
2021/12/01 14:44:22;;;;;;;0.52;0.52;;;;;;;;;;5096951;28;20210;-61
2021/12/01 14:46:54;;;;;;;1.98;1.25;;;;;;;;;;5090881;28;20505;-61
2021/12/01 14:49:22;;;;;;;1.08;1.02;;;;;;;;;;5076024;28;20200;-57
2021/12/01 14:51:50;;;;;;;0.40;0.40;;;;;;;;;;5076347;28;20512;-57